sensor_id;sensor_type;location;lat;lon;timestamp;P1;durP1;ratioP1;P2;durP2;ratioP2
71665;SDS011;59503;53.486;10.196;2023-10-09T00:01:05;3.25;;;1.38;;
71665;SDS011;59503;53.486;10.196;2023-10-09T00:03:41;3.57;;;1.30;;
71665;SDS011;59503;53.486;10.196;2023-10-09T00:06:07;3.65;;;1.65;;
71665;SDS011;59503;53.486;10.196;2023-10-09T00:08:33;4.97;;;1.67;;
71665;SDS011;59503;53.486;10.196;2023-10-09T00:11:02;4.10;;;1.23;;
71665;SDS011;59503;53.486;10.196;2023-10-09T00:13:43;3.47;;;1.30;;
71665;SDS011;59503;53.486;10.196;2023-10-09T00:16:18;3.80;;;1.55;;
71665;SDS011;59503;53.486;10.196;2023-10-09T00:19:04;7.82;;;1.63;;
71665;SDS011;59503;53.486;10.196;2023-10-09T00:21:45;4.22;;;1.63;;
71665;SDS011;59503;53.486;10.196;2023-10-09T00:24:12;3.20;;;1.40;;
71665;SDS011;59503;53.486;10.196;2023-10-09T00:26:43;5.63;;;1.58;;
71665;SDS011;59503;53.486;10.196;2023-10-09T00:29:11;4.28;;;1.55;;
71665;SDS011;59503;53.486;10.196;2023-10-09T00:31:53;3.15;;;1.48;;
71665;SDS011;59503;53.486;10.196;2023-10-09T00:34:41;3.65;;;1.48;;
71665;SDS011;59503;53.486;10.196;2023-10-09T00:37:08;7.47;;;1.50;;
71665;SDS011;59503;53.486;10.196;2023-10-09T00:39:50;3.47;;;1.48;;
71665;SDS011;59503;53.486;10.196;2023-10-09T00:42:25;6.65;;;1.40;;
71665;SDS011;59503;53.486;10.196;2023-10-09T00:44:55;3.92;;;1.75;;
71665;SDS011;59503;53.486;10.196;2023-10-09T00:47:21;4.15;;;1.55;;
71665;SDS011;59503;53.486;10.196;2023-10-09T00:49:55;5.27;;;1.40;;
71665;SDS011;59503;53.486;10.196;2023-10-09T00:52:29;3.67;;;1.48;;
71665;SDS011;59503;53.486;10.196;2023-10-09T00:54:59;5.13;;;1.63;;
71665;SDS011;59503;53.486;10.196;2023-10-09T00:57:45;2.80;;;1.42;;
71665;SDS011;59503;53.486;10.196;2023-10-09T01:00:15;3.53;;;1.40;;
71665;SDS011;59503;53.486;10.196;2023-10-09T01:03:00;10.80;;;1.80;;
71665;SDS011;59503;53.486;10.196;2023-10-09T01:05:54;5.82;;;1.90;;
71665;SDS011;59503;53.486;10.196;2023-10-09T01:08:22;5.55;;;2.00;;
71665;SDS011;59503;53.486;10.196;2023-10-09T01:13:39;4.20;;;1.70;;
71665;SDS011;59503;53.486;10.196;2023-10-09T01:16:11;5.43;;;1.70;;
71665;SDS011;59503;53.486;10.196;2023-10-09T01:18:42;5.95;;;1.70;;
71665;SDS011;59503;53.486;10.196;2023-10-09T01:21:08;6.03;;;1.43;;
71665;SDS011;59503;53.486;10.196;2023-10-09T01:23:42;7.55;;;1.45;;
71665;SDS011;59503;53.486;10.196;2023-10-09T01:26:27;3.83;;;1.75;;
71665;SDS011;59503;53.486;10.196;2023-10-09T01:28:59;9.70;;;2.08;;
71665;SDS011;59503;53.486;10.196;2023-10-09T01:31:25;5.25;;;2.17;;
71665;SDS011;59503;53.486;10.196;2023-10-09T01:33:52;7.20;;;2.40;;
71665;SDS011;59503;53.486;10.196;2023-10-09T01:36:25;5.57;;;1.85;;
71665;SDS011;59503;53.486;10.196;2023-10-09T01:38:59;5.28;;;2.25;;
71665;SDS011;59503;53.486;10.196;2023-10-09T01:41:46;4.45;;;1.52;;
71665;SDS011;59503;53.486;10.196;2023-10-09T01:44:12;5.77;;;1.83;;
71665;SDS011;59503;53.486;10.196;2023-10-09T01:46:38;5.47;;;2.33;;
71665;SDS011;59503;53.486;10.196;2023-10-09T01:49:03;7.80;;;2.10;;
71665;SDS011;59503;53.486;10.196;2023-10-09T01:51:42;6.70;;;2.25;;
71665;SDS011;59503;53.486;10.196;2023-10-09T01:54:08;5.73;;;2.10;;
71665;SDS011;59503;53.486;10.196;2023-10-09T01:56:34;9.32;;;2.25;;
71665;SDS011;59503;53.486;10.196;2023-10-09T01:59:04;5.97;;;2.25;;
71665;SDS011;59503;53.486;10.196;2023-10-09T02:01:31;7.97;;;2.10;;
71665;SDS011;59503;53.486;10.196;2023-10-09T02:03:58;7.38;;;2.35;;
71665;SDS011;59503;53.486;10.196;2023-10-09T02:06:30;8.77;;;2.20;;
71665;SDS011;59503;53.486;10.196;2023-10-09T02:08:57;8.85;;;2.08;;
71665;SDS011;59503;53.486;10.196;2023-10-09T02:11:24;9.48;;;2.35;;
71665;SDS011;59503;53.486;10.196;2023-10-09T02:14:04;5.80;;;2.30;;
71665;SDS011;59503;53.486;10.196;2023-10-09T02:16:44;5.25;;;2.22;;
71665;SDS011;59503;53.486;10.196;2023-10-09T02:19:29;5.50;;;2.67;;
71665;SDS011;59503;53.486;10.196;2023-10-09T02:22:02;5.55;;;2.65;;
71665;SDS011;59503;53.486;10.196;2023-10-09T02:24:50;5.60;;;2.03;;
71665;SDS011;59503;53.486;10.196;2023-10-09T02:27:25;7.57;;;2.53;;
71665;SDS011;59503;53.486;10.196;2023-10-09T02:30:11;5.30;;;2.20;;
71665;SDS011;59503;53.486;10.196;2023-10-09T02:32:51;8.20;;;2.15;;
71665;SDS011;59503;53.486;10.196;2023-10-09T02:35:19;7.18;;;1.80;;
71665;SDS011;59503;53.486;10.196;2023-10-09T02:37:54;5.25;;;1.80;;
71665;SDS011;59503;53.486;10.196;2023-10-09T02:40:19;7.63;;;1.67;;
71665;SDS011;59503;53.486;10.196;2023-10-09T02:42:50;3.45;;;1.63;;
71665;SDS011;59503;53.486;10.196;2023-10-09T02:45:16;2.78;;;1.45;;
71665;SDS011;59503;53.486;10.196;2023-10-09T02:47:43;2.80;;;1.33;;
71665;SDS011;59503;53.486;10.196;2023-10-09T02:50:13;3.92;;;1.60;;
71665;SDS011;59503;53.486;10.196;2023-10-09T02:52:46;3.75;;;1.33;;
71665;SDS011;59503;53.486;10.196;2023-10-09T02:55:15;5.65;;;1.88;;
71665;SDS011;59503;53.486;10.196;2023-10-09T02:57:50;4.75;;;1.23;;
71665;SDS011;59503;53.486;10.196;2023-10-09T03:00:21;5.47;;;1.40;;
71665;SDS011;59503;53.486;10.196;2023-10-09T03:02:54;3.33;;;1.42;;
71665;SDS011;59503;53.486;10.196;2023-10-09T03:05:23;6.72;;;1.38;;
71665;SDS011;59503;53.486;10.196;2023-10-09T03:07:52;7.10;;;1.55;;
71665;SDS011;59503;53.486;10.196;2023-10-09T03:10:23;3.35;;;1.50;;
71665;SDS011;59503;53.486;10.196;2023-10-09T03:12:50;6.03;;;1.60;;
71665;SDS011;59503;53.486;10.196;2023-10-09T03:15:21;2.97;;;1.30;;
71665;SDS011;59503;53.486;10.196;2023-10-09T03:17:47;7.53;;;1.42;;
71665;SDS011;59503;53.486;10.196;2023-10-09T03:20:13;4.15;;;1.65;;
71665;SDS011;59503;53.486;10.196;2023-10-09T03:22:42;3.00;;;1.38;;
71665;SDS011;59503;53.486;10.196;2023-10-09T03:25:10;6.67;;;1.90;;
71665;SDS011;59503;53.486;10.196;2023-10-09T03:27:42;4.40;;;1.55;;
71665;SDS011;59503;53.486;10.196;2023-10-09T03:30:10;4.70;;;1.55;;
71665;SDS011;59503;53.486;10.196;2023-10-09T03:32:47;5.75;;;1.83;;
71665;SDS011;59503;53.486;10.196;2023-10-09T03:35:17;3.28;;;1.30;;
71665;SDS011;59503;53.486;10.196;2023-10-09T03:37:53;4.83;;;1.77;;
71665;SDS011;59503;53.486;10.196;2023-10-09T03:40:25;5.32;;;1.45;;
71665;SDS011;59503;53.486;10.196;2023-10-09T03:42:52;3.90;;;1.33;;
71665;SDS011;59503;53.486;10.196;2023-10-09T03:45:19;4.63;;;1.30;;
71665;SDS011;59503;53.486;10.196;2023-10-09T03:47:55;2.80;;;1.30;;
71665;SDS011;59503;53.486;10.196;2023-10-09T03:50:34;3.55;;;1.45;;
71665;SDS011;59503;53.486;10.196;2023-10-09T03:53:05;5.32;;;1.20;;
71665;SDS011;59503;53.486;10.196;2023-10-09T03:55:33;4.00;;;1.30;;
71665;SDS011;59503;53.486;10.196;2023-10-09T03:57:59;5.80;;;1.35;;
71665;SDS011;59503;53.486;10.196;2023-10-09T04:00:28;4.97;;;0.93;;
71665;SDS011;59503;53.486;10.196;2023-10-09T04:02:55;8.30;;;1.77;;
71665;SDS011;59503;53.486;10.196;2023-10-09T04:05:22;4.15;;;1.42;;
71665;SDS011;59503;53.486;10.196;2023-10-09T04:07:48;4.38;;;1.48;;
71665;SDS011;59503;53.486;10.196;2023-10-09T04:10:14;6.97;;;1.40;;
71665;SDS011;59503;53.486;10.196;2023-10-09T04:13:08;4.90;;;1.33;;
71665;SDS011;59503;53.486;10.196;2023-10-09T04:15:36;7.75;;;1.27;;
71665;SDS011;59503;53.486;10.196;2023-10-09T04:18:02;3.77;;;1.40;;
71665;SDS011;59503;53.486;10.196;2023-10-09T04:20:30;3.60;;;1.52;;
71665;SDS011;59503;53.486;10.196;2023-10-09T04:22:58;2.78;;;1.10;;
71665;SDS011;59503;53.486;10.196;2023-10-09T04:25:32;6.10;;;1.40;;
71665;SDS011;59503;53.486;10.196;2023-10-09T04:28:08;3.15;;;1.27;;
71665;SDS011;59503;53.486;10.196;2023-10-09T04:30:44;5.00;;;1.70;;
71665;SDS011;59503;53.486;10.196;2023-10-09T04:33:18;4.05;;;1.35;;
71665;SDS011;59503;53.486;10.196;2023-10-09T04:36:05;7.38;;;1.40;;
71665;SDS011;59503;53.486;10.196;2023-10-09T04:38:41;7.72;;;1.60;;
71665;SDS011;59503;53.486;10.196;2023-10-09T04:41:20;5.32;;;1.23;;
71665;SDS011;59503;53.486;10.196;2023-10-09T04:43:58;4.00;;;1.20;;
71665;SDS011;59503;53.486;10.196;2023-10-09T04:46:42;4.32;;;1.55;;
71665;SDS011;59503;53.486;10.196;2023-10-09T04:49:34;2.80;;;1.40;;
71665;SDS011;59503;53.486;10.196;2023-10-09T04:52:13;9.48;;;1.25;;
71665;SDS011;59503;53.486;10.196;2023-10-09T04:54:50;2.65;;;1.00;;
71665;SDS011;59503;53.486;10.196;2023-10-09T04:57:35;5.13;;;1.40;;
71665;SDS011;59503;53.486;10.196;2023-10-09T05:00:15;4.00;;;1.27;;
71665;SDS011;59503;53.486;10.196;2023-10-09T05:03:07;4.75;;;1.27;;
71665;SDS011;59503;53.486;10.196;2023-10-09T05:05:37;5.15;;;1.20;;
71665;SDS011;59503;53.486;10.196;2023-10-09T05:08:07;4.43;;;1.35;;
71665;SDS011;59503;53.486;10.196;2023-10-09T05:13:30;4.38;;;0.90;;
71665;SDS011;59503;53.486;10.196;2023-10-09T05:18:40;4.18;;;1.10;;
71665;SDS011;59503;53.486;10.196;2023-10-09T05:21:06;3.40;;;1.13;;
71665;SDS011;59503;53.486;10.196;2023-10-09T05:23:41;2.77;;;0.90;;
71665;SDS011;59503;53.486;10.196;2023-10-09T05:26:16;5.20;;;1.15;;
71665;SDS011;59503;53.486;10.196;2023-10-09T05:29:00;3.15;;;1.35;;
71665;SDS011;59503;53.486;10.196;2023-10-09T05:31:44;4.45;;;1.20;;
71665;SDS011;59503;53.486;10.196;2023-10-09T05:34:22;3.78;;;1.30;;
71665;SDS011;59503;53.486;10.196;2023-10-09T05:36:58;4.63;;;1.07;;
71665;SDS011;59503;53.486;10.196;2023-10-09T05:39:36;5.88;;;1.20;;
71665;SDS011;59503;53.486;10.196;2023-10-09T05:42:07;2.60;;;0.93;;
71665;SDS011;59503;53.486;10.196;2023-10-09T05:44:43;4.95;;;1.10;;
71665;SDS011;59503;53.486;10.196;2023-10-09T05:47:25;2.65;;;0.82;;
71665;SDS011;59503;53.486;10.196;2023-10-09T05:49:50;4.73;;;1.10;;
71665;SDS011;59503;53.486;10.196;2023-10-09T05:52:39;6.32;;;1.10;;
71665;SDS011;59503;53.486;10.196;2023-10-09T05:55:05;5.97;;;1.00;;
71665;SDS011;59503;53.486;10.196;2023-10-09T05:57:34;3.00;;;1.00;;
71665;SDS011;59503;53.486;10.196;2023-10-09T06:00:18;2.88;;;1.02;;
71665;SDS011;59503;53.486;10.196;2023-10-09T06:03:02;3.10;;;0.77;;
71665;SDS011;59503;53.486;10.196;2023-10-09T06:05:43;3.35;;;0.90;;
71665;SDS011;59503;53.486;10.196;2023-10-09T06:08:19;4.35;;;0.85;;
71665;SDS011;59503;53.486;10.196;2023-10-09T06:11:03;5.45;;;0.90;;
71665;SDS011;59503;53.486;10.196;2023-10-09T06:13:55;3.17;;;1.30;;
71665;SDS011;59503;53.486;10.196;2023-10-09T06:16:28;2.97;;;1.10;;
71665;SDS011;59503;53.486;10.196;2023-10-09T06:19:06;7.28;;;1.52;;
71665;SDS011;59503;53.486;10.196;2023-10-09T06:21:51;3.42;;;1.10;;
71665;SDS011;59503;53.486;10.196;2023-10-09T06:24:20;4.25;;;1.33;;
71665;SDS011;59503;53.486;10.196;2023-10-09T06:26:54;5.63;;;1.38;;
71665;SDS011;59503;53.486;10.196;2023-10-09T06:29:19;5.80;;;1.40;;
71665;SDS011;59503;53.486;10.196;2023-10-09T06:32:04;2.92;;;1.25;;
71665;SDS011;59503;53.486;10.196;2023-10-09T07:04:11;8.97;;;1.60;;
71665;SDS011;59503;53.486;10.196;2023-10-09T07:06:45;9.07;;;2.55;;
71665;SDS011;59503;53.486;10.196;2023-10-09T07:09:10;7.68;;;1.75;;
71665;SDS011;59503;53.486;10.196;2023-10-09T07:11:41;7.68;;;2.00;;
71665;SDS011;59503;53.486;10.196;2023-10-09T07:14:29;4.32;;;1.83;;
71665;SDS011;59503;53.486;10.196;2023-10-09T07:16:56;4.60;;;1.83;;
71665;SDS011;59503;53.486;10.196;2023-10-09T07:19:26;5.50;;;2.10;;
71665;SDS011;59503;53.486;10.196;2023-10-09T07:22:05;4.45;;;1.73;;
71665;SDS011;59503;53.486;10.196;2023-10-09T07:24:41;6.93;;;2.00;;
71665;SDS011;59503;53.486;10.196;2023-10-09T07:27:09;4.55;;;2.00;;
71665;SDS011;59503;53.486;10.196;2023-10-09T07:29:39;4.93;;;2.07;;
71665;SDS011;59503;53.486;10.196;2023-10-09T07:32:17;4.80;;;1.92;;
71665;SDS011;59503;53.486;10.196;2023-10-09T08:45:13;4.67;;;2.67;;
71665;SDS011;59503;53.486;10.196;2023-10-09T08:48:01;5.97;;;2.73;;
71665;SDS011;59503;53.486;10.196;2023-10-09T08:50:39;7.53;;;3.10;;
71665;SDS011;59503;53.486;10.196;2023-10-09T08:53:12;6.43;;;3.25;;
71665;SDS011;59503;53.486;10.196;2023-10-09T08:55:46;6.60;;;3.33;;
71665;SDS011;59503;53.486;10.196;2023-10-09T08:58:14;5.55;;;3.53;;
71665;SDS011;59503;53.486;10.196;2023-10-09T09:00:50;9.93;;;3.67;;
71665;SDS011;59503;53.486;10.196;2023-10-09T09:03:19;7.90;;;3.20;;
71665;SDS011;59503;53.486;10.196;2023-10-09T09:06:00;8.00;;;3.17;;
71665;SDS011;59503;53.486;10.196;2023-10-09T09:08:33;6.47;;;3.20;;
71665;SDS011;59503;53.486;10.196;2023-10-09T09:11:20;8.05;;;3.65;;
71665;SDS011;59503;53.486;10.196;2023-10-09T09:16:35;8.50;;;3.53;;
71665;SDS011;59503;53.486;10.196;2023-10-09T09:19:30;7.82;;;3.38;;
71665;SDS011;59503;53.486;10.196;2023-10-09T09:22:19;10.23;;;4.55;;
71665;SDS011;59503;53.486;10.196;2023-10-09T09:25:00;8.68;;;4.20;;
71665;SDS011;59503;53.486;10.196;2023-10-09T09:27:45;8.80;;;4.10;;
71665;SDS011;59503;53.486;10.196;2023-10-09T09:41:18;8.85;;;3.40;;
71665;SDS011;59503;53.486;10.196;2023-10-09T09:44:12;11.23;;;3.83;;
71665;SDS011;59503;53.486;10.196;2023-10-09T09:50:15;10.35;;;3.92;;
71665;SDS011;59503;53.486;10.196;2023-10-09T10:03:38;7.18;;;3.75;;
71665;SDS011;59503;53.486;10.196;2023-10-09T10:06:22;6.88;;;4.28;;
71665;SDS011;59503;53.486;10.196;2023-10-09T10:09:38;8.27;;;3.40;;
71665;SDS011;59503;53.486;10.196;2023-10-09T10:12:13;6.55;;;3.35;;
71665;SDS011;59503;53.486;10.196;2023-10-09T10:14:52;10.63;;;4.23;;
71665;SDS011;59503;53.486;10.196;2023-10-09T10:17:32;8.80;;;4.40;;
71665;SDS011;59503;53.486;10.196;2023-10-09T12:05:01;2.77;;;1.60;;
71665;SDS011;59503;53.486;10.196;2023-10-09T12:26:52;4.78;;;1.50;;
71665;SDS011;59503;53.486;10.196;2023-10-09T12:32:52;2.88;;;1.38;;
71665;SDS011;59503;53.486;10.196;2023-10-09T12:35:26;2.03;;;1.58;;
71665;SDS011;59503;53.486;10.196;2023-10-09T12:38:13;2.30;;;1.40;;
71665;SDS011;59503;53.486;10.196;2023-10-09T12:40:43;2.00;;;1.30;;
71665;SDS011;59503;53.486;10.196;2023-10-09T12:43:19;2.30;;;1.35;;
71665;SDS011;59503;53.486;10.196;2023-10-09T12:45:45;2.55;;;1.23;;
71665;SDS011;59503;53.486;10.196;2023-10-09T12:48:11;1.85;;;1.25;;
71665;SDS011;59503;53.486;10.196;2023-10-09T12:50:39;1.50;;;1.00;;
71665;SDS011;59503;53.486;10.196;2023-10-09T12:53:07;2.65;;;1.23;;
71665;SDS011;59503;53.486;10.196;2023-10-09T12:55:37;2.15;;;0.98;;
71665;SDS011;59503;53.486;10.196;2023-10-09T12:58:09;2.20;;;1.15;;
71665;SDS011;59503;53.486;10.196;2023-10-09T13:00:40;2.28;;;1.50;;
71665;SDS011;59503;53.486;10.196;2023-10-09T13:03:09;2.60;;;1.40;;
71665;SDS011;59503;53.486;10.196;2023-10-09T13:05:46;2.70;;;1.55;;
71665;SDS011;59503;53.486;10.196;2023-10-09T13:08:35;2.53;;;1.23;;
71665;SDS011;59503;53.486;10.196;2023-10-09T13:11:02;1.95;;;1.33;;
71665;SDS011;59503;53.486;10.196;2023-10-09T13:13:42;2.28;;;1.60;;
71665;SDS011;59503;53.486;10.196;2023-10-09T13:18:40;3.38;;;1.55;;
71665;SDS011;59503;53.486;10.196;2023-10-09T13:21:14;1.98;;;1.55;;
71665;SDS011;59503;53.486;10.196;2023-10-09T13:23:41;2.63;;;1.70;;
71665;SDS011;59503;53.486;10.196;2023-10-09T13:26:12;3.53;;;1.48;;
71665;SDS011;59503;53.486;10.196;2023-10-09T13:28:47;3.33;;;1.60;;
71665;SDS011;59503;53.486;10.196;2023-10-09T13:31:14;2.67;;;1.40;;
71665;SDS011;59503;53.486;10.196;2023-10-09T13:33:41;2.67;;;1.75;;
71665;SDS011;59503;53.486;10.196;2023-10-09T13:36:07;2.42;;;1.52;;
71665;SDS011;59503;53.486;10.196;2023-10-09T13:38:47;4.05;;;1.70;;
71665;SDS011;59503;53.486;10.196;2023-10-09T13:41:12;2.03;;;1.10;;
71665;SDS011;59503;53.486;10.196;2023-10-09T13:43:38;1.75;;;1.35;;
71665;SDS011;59503;53.486;10.196;2023-10-09T13:46:06;2.58;;;1.52;;
71665;SDS011;59503;53.486;10.196;2023-10-09T13:48:33;2.00;;;1.30;;
71665;SDS011;59503;53.486;10.196;2023-10-09T13:51:07;3.35;;;1.65;;
71665;SDS011;59503;53.486;10.196;2023-10-09T13:53:39;2.55;;;1.52;;
71665;SDS011;59503;53.486;10.196;2023-10-09T13:56:19;1.90;;;1.40;;
71665;SDS011;59503;53.486;10.196;2023-10-09T13:58:46;2.17;;;1.70;;
71665;SDS011;59503;53.486;10.196;2023-10-09T14:01:12;2.80;;;1.70;;
71665;SDS011;59503;53.486;10.196;2023-10-09T14:03:51;2.95;;;1.38;;
71665;SDS011;59503;53.486;10.196;2023-10-09T14:06:18;2.00;;;1.40;;
71665;SDS011;59503;53.486;10.196;2023-10-09T14:08:55;2.50;;;1.38;;
71665;SDS011;59503;53.486;10.196;2023-10-09T14:11:21;2.22;;;1.40;;
71665;SDS011;59503;53.486;10.196;2023-10-09T14:13:46;2.67;;;1.67;;
71665;SDS011;59503;53.486;10.196;2023-10-09T14:16:13;2.13;;;1.58;;
71665;SDS011;59503;53.486;10.196;2023-10-09T14:18:59;3.13;;;2.00;;
71665;SDS011;59503;53.486;10.196;2023-10-09T14:21:28;2.65;;;1.65;;
71665;SDS011;59503;53.486;10.196;2023-10-09T14:23:55;3.05;;;1.38;;
71665;SDS011;59503;53.486;10.196;2023-10-09T14:26:25;3.38;;;1.70;;
71665;SDS011;59503;53.486;10.196;2023-10-09T14:28:52;4.60;;;1.73;;
71665;SDS011;59503;53.486;10.196;2023-10-09T14:31:18;2.43;;;1.67;;
71665;SDS011;59503;53.486;10.196;2023-10-09T14:33:51;3.42;;;1.70;;
71665;SDS011;59503;53.486;10.196;2023-10-09T14:36:18;2.72;;;1.83;;
71665;SDS011;59503;53.486;10.196;2023-10-09T14:38:43;2.70;;;1.50;;
71665;SDS011;59503;53.486;10.196;2023-10-09T14:41:12;2.72;;;1.70;;
71665;SDS011;59503;53.486;10.196;2023-10-09T14:43:38;2.08;;;1.38;;
71665;SDS011;59503;53.486;10.196;2023-10-09T14:46:04;4.07;;;2.03;;
71665;SDS011;59503;53.486;10.196;2023-10-09T14:48:38;3.20;;;1.40;;
71665;SDS011;59503;53.486;10.196;2023-10-09T14:51:04;2.38;;;1.50;;
71665;SDS011;59503;53.486;10.196;2023-10-09T14:53:30;3.85;;;1.70;;
71665;SDS011;59503;53.486;10.196;2023-10-09T14:55:56;2.60;;;1.70;;
71665;SDS011;59503;53.486;10.196;2023-10-09T14:58:22;3.15;;;1.67;;
71665;SDS011;59503;53.486;10.196;2023-10-09T15:00:53;2.22;;;1.40;;
71665;SDS011;59503;53.486;10.196;2023-10-09T15:03:19;2.80;;;1.92;;
71665;SDS011;59503;53.486;10.196;2023-10-09T15:05:48;2.40;;;1.83;;
71665;SDS011;59503;53.486;10.196;2023-10-09T15:08:14;3.60;;;1.80;;
71665;SDS011;59503;53.486;10.196;2023-10-09T15:10:46;2.20;;;1.50;;
71665;SDS011;59503;53.486;10.196;2023-10-09T15:13:13;2.30;;;1.60;;
71665;SDS011;59503;53.486;10.196;2023-10-09T15:15:44;1.75;;;1.25;;
71665;SDS011;59503;53.486;10.196;2023-10-09T15:18:10;2.53;;;1.50;;
71665;SDS011;59503;53.486;10.196;2023-10-09T15:20:39;3.03;;;1.65;;
71665;SDS011;59503;53.486;10.196;2023-10-09T15:23:06;1.75;;;1.42;;
71665;SDS011;59503;53.486;10.196;2023-10-09T15:25:32;3.20;;;1.53;;
71665;SDS011;59503;53.486;10.196;2023-10-09T15:27:59;2.50;;;1.58;;
71665;SDS011;59503;53.486;10.196;2023-10-09T15:30:26;3.78;;;1.60;;
71665;SDS011;59503;53.486;10.196;2023-10-09T15:32:53;2.42;;;1.52;;
71665;SDS011;59503;53.486;10.196;2023-10-09T15:35:21;2.40;;;1.67;;
71665;SDS011;59503;53.486;10.196;2023-10-09T15:37:47;2.37;;;1.50;;
71665;SDS011;59503;53.486;10.196;2023-10-09T15:40:13;2.10;;;1.30;;
71665;SDS011;59503;53.486;10.196;2023-10-09T15:42:43;4.07;;;2.03;;
71665;SDS011;59503;53.486;10.196;2023-10-09T15:45:15;3.20;;;1.93;;
71665;SDS011;59503;53.486;10.196;2023-10-09T15:47:41;3.00;;;1.52;;
71665;SDS011;59503;53.486;10.196;2023-10-09T15:50:07;3.10;;;1.83;;
71665;SDS011;59503;53.486;10.196;2023-10-09T15:52:34;3.13;;;2.28;;
71665;SDS011;59503;53.486;10.196;2023-10-09T15:55:00;3.50;;;1.93;;
71665;SDS011;59503;53.486;10.196;2023-10-09T15:57:26;2.72;;;1.77;;
71665;SDS011;59503;53.486;10.196;2023-10-09T15:59:52;3.45;;;2.00;;
71665;SDS011;59503;53.486;10.196;2023-10-09T16:02:17;4.50;;;3.30;;
71665;SDS011;59503;53.486;10.196;2023-10-09T16:04:43;2.97;;;2.00;;
71665;SDS011;59503;53.486;10.196;2023-10-09T16:07:10;2.50;;;1.52;;
71665;SDS011;59503;53.486;10.196;2023-10-09T16:09:35;3.15;;;1.80;;
71665;SDS011;59503;53.486;10.196;2023-10-09T16:12:07;2.40;;;1.92;;
71665;SDS011;59503;53.486;10.196;2023-10-09T16:14:35;2.00;;;1.50;;
71665;SDS011;59503;53.486;10.196;2023-10-09T16:17:01;2.17;;;1.60;;
71665;SDS011;59503;53.486;10.196;2023-10-09T16:19:27;4.47;;;2.30;;
71665;SDS011;59503;53.486;10.196;2023-10-09T16:21:58;5.35;;;1.90;;
71665;SDS011;59503;53.486;10.196;2023-10-09T16:24:28;4.25;;;2.00;;
71665;SDS011;59503;53.486;10.196;2023-10-09T16:26:58;2.67;;;1.80;;
71665;SDS011;59503;53.486;10.196;2023-10-09T16:29:24;4.73;;;1.80;;
71665;SDS011;59503;53.486;10.196;2023-10-09T16:31:50;3.30;;;2.13;;
71665;SDS011;59503;53.486;10.196;2023-10-09T16:34:17;5.43;;;1.92;;
71665;SDS011;59503;53.486;10.196;2023-10-09T16:36:42;2.90;;;1.90;;
71665;SDS011;59503;53.486;10.196;2023-10-09T16:39:07;4.80;;;2.60;;
71665;SDS011;59503;53.486;10.196;2023-10-09T16:41:44;3.75;;;2.13;;
71665;SDS011;59503;53.486;10.196;2023-10-09T16:44:10;2.47;;;1.58;;
71665;SDS011;59503;53.486;10.196;2023-10-09T16:46:36;2.83;;;1.57;;
71665;SDS011;59503;53.486;10.196;2023-10-09T16:49:04;3.53;;;2.08;;
71665;SDS011;59503;53.486;10.196;2023-10-09T16:51:30;3.93;;;2.13;;
71665;SDS011;59503;53.486;10.196;2023-10-09T16:53:55;4.22;;;2.40;;
71665;SDS011;59503;53.486;10.196;2023-10-09T16:56:21;3.97;;;2.30;;
71665;SDS011;59503;53.486;10.196;2023-10-09T16:58:47;3.35;;;2.15;;
71665;SDS011;59503;53.486;10.196;2023-10-09T17:01:17;4.07;;;2.47;;
71665;SDS011;59503;53.486;10.196;2023-10-09T17:03:46;3.50;;;2.30;;
71665;SDS011;59503;53.486;10.196;2023-10-09T17:06:19;3.55;;;1.80;;
71665;SDS011;59503;53.486;10.196;2023-10-09T17:08:45;2.37;;;1.70;;
71665;SDS011;59503;53.486;10.196;2023-10-09T17:11:16;3.95;;;2.47;;
71665;SDS011;59503;53.486;10.196;2023-10-09T17:13:45;3.67;;;2.22;;
71665;SDS011;59503;53.486;10.196;2023-10-09T17:16:14;2.78;;;2.05;;
71665;SDS011;59503;53.486;10.196;2023-10-09T17:21:10;3.00;;;1.87;;
71665;SDS011;59503;53.486;10.196;2023-10-09T17:23:41;4.53;;;3.25;;
71665;SDS011;59503;53.486;10.196;2023-10-09T17:26:10;4.03;;;2.60;;
71665;SDS011;59503;53.486;10.196;2023-10-09T17:28:37;4.70;;;2.90;;
71665;SDS011;59503;53.486;10.196;2023-10-09T17:31:03;3.75;;;2.45;;
71665;SDS011;59503;53.486;10.196;2023-10-09T17:33:30;3.40;;;2.38;;
71665;SDS011;59503;53.486;10.196;2023-10-09T17:35:56;3.35;;;2.50;;
71665;SDS011;59503;53.486;10.196;2023-10-09T17:38:24;4.47;;;2.90;;
71665;SDS011;59503;53.486;10.196;2023-10-09T17:40:50;4.68;;;2.70;;
71665;SDS011;59503;53.486;10.196;2023-10-09T17:43:21;5.53;;;3.00;;
71665;SDS011;59503;53.486;10.196;2023-10-09T17:45:47;5.30;;;3.03;;
71665;SDS011;59503;53.486;10.196;2023-10-09T17:48:13;3.93;;;2.63;;
71665;SDS011;59503;53.486;10.196;2023-10-09T17:50:42;4.25;;;2.55;;
71665;SDS011;59503;53.486;10.196;2023-10-09T17:53:09;4.55;;;3.30;;
71665;SDS011;59503;53.486;10.196;2023-10-09T17:55:34;3.83;;;2.97;;
71665;SDS011;59503;53.486;10.196;2023-10-09T17:58:01;8.43;;;3.90;;
71665;SDS011;59503;53.486;10.196;2023-10-09T18:00:34;8.30;;;4.90;;
71665;SDS011;59503;53.486;10.196;2023-10-09T18:03:00;6.53;;;4.60;;
71665;SDS011;59503;53.486;10.196;2023-10-09T18:05:25;7.10;;;4.85;;
71665;SDS011;59503;53.486;10.196;2023-10-09T18:07:55;6.47;;;4.47;;
71665;SDS011;59503;53.486;10.196;2023-10-09T18:10:24;9.15;;;5.05;;
71665;SDS011;59503;53.486;10.196;2023-10-09T18:12:49;7.30;;;3.60;;
71665;SDS011;59503;53.486;10.196;2023-10-09T18:15:15;7.93;;;3.63;;
71665;SDS011;59503;53.486;10.196;2023-10-09T18:17:45;5.63;;;2.92;;
71665;SDS011;59503;53.486;10.196;2023-10-09T18:20:11;8.10;;;2.57;;
71665;SDS011;59503;53.486;10.196;2023-10-09T18:22:36;6.25;;;2.35;;
71665;SDS011;59503;53.486;10.196;2023-10-09T18:25:02;6.20;;;1.93;;
71665;SDS011;59503;53.486;10.196;2023-10-09T18:27:29;3.95;;;2.10;;
71665;SDS011;59503;53.486;10.196;2023-10-09T18:29:55;4.70;;;1.80;;
71665;SDS011;59503;53.486;10.196;2023-10-09T18:32:22;11.55;;;2.20;;
71665;SDS011;59503;53.486;10.196;2023-10-09T18:34:49;7.85;;;1.77;;
71665;SDS011;59503;53.486;10.196;2023-10-09T18:37:15;4.50;;;1.90;;
71665;SDS011;59503;53.486;10.196;2023-10-09T18:39:44;8.95;;;1.98;;
71665;SDS011;59503;53.486;10.196;2023-10-09T18:42:12;6.13;;;2.33;;
71665;SDS011;59503;53.486;10.196;2023-10-09T18:44:38;5.88;;;1.92;;
71665;SDS011;59503;53.486;10.196;2023-10-09T18:47:06;5.90;;;2.42;;
71665;SDS011;59503;53.486;10.196;2023-10-09T18:49:40;9.50;;;3.63;;
71665;SDS011;59503;53.486;10.196;2023-10-09T18:52:06;10.75;;;4.10;;
71665;SDS011;59503;53.486;10.196;2023-10-09T18:54:31;6.13;;;3.23;;
71665;SDS011;59503;53.486;10.196;2023-10-09T18:57:04;7.53;;;2.50;;
71665;SDS011;59503;53.486;10.196;2023-10-09T18:59:30;5.05;;;2.20;;
71665;SDS011;59503;53.486;10.196;2023-10-09T19:01:56;6.50;;;2.00;;
71665;SDS011;59503;53.486;10.196;2023-10-09T19:04:22;5.90;;;2.60;;
71665;SDS011;59503;53.486;10.196;2023-10-09T19:06:47;6.43;;;2.10;;
71665;SDS011;59503;53.486;10.196;2023-10-09T19:09:14;4.22;;;1.60;;
71665;SDS011;59503;53.486;10.196;2023-10-09T19:11:46;2.78;;;1.40;;
71665;SDS011;59503;53.486;10.196;2023-10-09T19:14:12;4.78;;;1.65;;
71665;SDS011;59503;53.486;10.196;2023-10-09T19:16:38;3.30;;;1.60;;
71665;SDS011;59503;53.486;10.196;2023-10-09T19:19:03;3.13;;;1.13;;
71665;SDS011;59503;53.486;10.196;2023-10-09T19:21:33;2.85;;;1.10;;
71665;SDS011;59503;53.486;10.196;2023-10-09T19:24:03;2.57;;;0.90;;
71665;SDS011;59503;53.486;10.196;2023-10-09T19:26:33;4.13;;;0.70;;
71665;SDS011;59503;53.486;10.196;2023-10-09T19:29:00;2.80;;;0.70;;